createdAt,value
2019-01-24T00:01:06.367Z,-6.60
2019-01-24T00:06:12.540Z,-6.50
2019-01-24T00:11:18.613Z,-6.50
2019-01-24T00:16:24.761Z,-6.70
2019-01-24T00:21:30.982Z,-6.50
2019-01-24T00:26:37.072Z,-6.50
2019-01-24T00:31:43.119Z,-6.50
2019-01-24T00:36:49.296Z,-6.50
2019-01-24T00:41:55.346Z,-6.60
2019-01-24T00:47:01.473Z,-6.50
2019-01-24T00:52:07.537Z,-6.30
2019-01-24T00:57:13.685Z,-6.40
2019-01-24T01:02:19.865Z,-6.30
2019-01-24T01:07:26.072Z,-6.10
2019-01-24T01:12:32.119Z,-6.20
2019-01-24T01:17:38.208Z,-6.20
2019-01-24T01:22:44.460Z,-6.20
2019-01-24T01:27:50.595Z,-6.30
2019-01-24T01:32:56.640Z,-6.30
2019-01-24T01:38:02.799Z,-6.30
2019-01-24T01:43:08.868Z,-6.20
2019-01-24T01:48:14.940Z,-6.20
2019-01-24T01:53:21.026Z,-6.10
2019-01-24T01:58:27.143Z,-6.20
2019-01-24T02:03:33.267Z,-6.10
2019-01-24T02:08:39.327Z,-6.00
2019-01-24T02:13:45.512Z,-6.00
2019-01-24T02:18:51.539Z,-6.00
2019-01-24T02:23:57.590Z,-5.80
2019-01-24T02:29:03.836Z,-5.90
2019-01-24T02:34:10.020Z,-5.90
2019-01-24T02:39:16.113Z,-5.90
2019-01-24T02:44:22.088Z,-5.80
2019-01-24T02:49:28.253Z,-5.90
2019-01-24T02:54:34.430Z,-5.90
2019-01-24T02:59:40.616Z,-5.90
2019-01-24T03:04:46.620Z,-5.80
2019-01-24T03:09:52.551Z,-5.80
2019-01-24T03:14:58.669Z,-5.70
2019-01-24T03:20:04.987Z,-5.70
2019-01-24T03:25:11.318Z,-5.60
2019-01-24T03:30:19.234Z,-5.60
2019-01-24T03:35:26.972Z,-5.50
2019-01-24T03:40:33.090Z,-5.60
2019-01-24T03:45:39.074Z,-5.40
2019-01-24T03:50:45.159Z,-5.60
2019-01-24T03:55:51.636Z,-5.60
2019-01-24T04:00:57.705Z,-5.60
2019-01-24T04:06:03.686Z,-5.50
2019-01-24T04:11:09.689Z,-5.40
2019-01-24T04:16:15.803Z,-5.40
2019-01-24T04:21:23.340Z,-5.50
2019-01-24T04:26:29.490Z,-5.40
2019-01-24T04:31:35.462Z,-5.40
2019-01-24T04:36:41.557Z,-5.30
2019-01-24T04:41:47.636Z,-5.20
2019-01-24T04:46:53.803Z,-5.10
2019-01-24T04:51:59.902Z,-5.00
2019-01-24T04:57:05.857Z,-5.10
2019-01-24T05:02:11.836Z,-5.00
2019-01-24T05:07:18.002Z,-5.00
2019-01-24T05:12:24.069Z,-5.00
2019-01-24T05:17:30.142Z,-5.00
2019-01-24T05:22:36.364Z,-5.10
2019-01-24T05:27:42.496Z,-5.10
2019-01-24T05:32:48.663Z,-5.20
2019-01-24T05:37:54.663Z,-5.00
2019-01-24T05:43:00.709Z,-4.90
2019-01-24T05:48:07.107Z,-4.90
2019-01-24T05:53:13.184Z,-4.80
2019-01-24T05:58:19.276Z,-4.70
2019-01-24T06:03:25.304Z,-4.80
2019-01-24T06:08:31.291Z,-4.80
2019-01-24T06:13:37.491Z,-4.70
2019-01-24T06:18:43.555Z,-4.60
2019-01-24T06:23:49.541Z,-4.70
2019-01-24T06:28:55.641Z,-4.80
2019-01-24T06:34:01.912Z,-4.60
2019-01-24T06:39:09.740Z,-4.60
2019-01-24T06:44:15.925Z,-4.50
2019-01-24T06:49:22.101Z,-4.50
2019-01-24T06:54:28.238Z,-4.40
2019-01-24T06:59:34.388Z,-4.50
2019-01-24T07:04:40.569Z,-4.50
2019-01-24T07:09:46.759Z,-4.30
2019-01-24T07:14:53.131Z,-4.30
2019-01-24T07:19:59.275Z,-4.20
2019-01-24T07:25:07.204Z,-4.30
2019-01-24T07:30:14.430Z,-4.20
2019-01-24T07:35:20.662Z,-4.10
2019-01-24T07:40:26.702Z,-4.20
2019-01-24T07:45:38.329Z,-4.10
2019-01-24T07:50:45.484Z,-4.10
2019-01-24T07:55:51.681Z,-4.00
2019-01-24T08:00:57.890Z,-3.80
2019-01-24T08:06:08.981Z,-3.90
2019-01-24T08:11:11.846Z,-3.90
2019-01-24T08:16:17.964Z,-3.80
2019-01-24T08:21:24.080Z,-3.80
2019-01-24T08:26:30.263Z,-3.60
2019-01-24T08:31:36.408Z,-3.40
2019-01-24T08:36:42.399Z,-3.40
2019-01-24T08:41:48.465Z,-3.30
2019-01-24T08:46:54.554Z,-3.20
2019-01-24T08:52:00.643Z,-3.20
2019-01-24T08:57:06.679Z,-3.30
2019-01-24T09:02:12.749Z,-3.30
2019-01-24T09:07:18.959Z,-3.10
2019-01-24T09:12:30.270Z,-3.00
2019-01-24T09:17:32.636Z,-2.90
2019-01-24T09:22:38.610Z,-2.90
2019-01-24T09:27:44.777Z,-3.00
2019-01-24T09:32:51.937Z,-2.90
2019-01-24T09:37:58.048Z,-2.80
2019-01-24T09:43:04.251Z,-2.80
2019-01-24T09:48:10.400Z,-2.90
2019-01-24T09:53:16.593Z,-2.60
2019-01-24T09:58:22.775Z,-2.70
2019-01-24T10:03:28.748Z,-2.80
2019-01-24T10:08:34.832Z,-2.80
2019-01-24T10:13:40.879Z,-2.70
2019-01-24T10:18:46.968Z,-2.70
2019-01-24T10:23:53.048Z,-2.80
2019-01-24T10:28:59.207Z,-2.80
2019-01-24T10:34:05.405Z,-2.60
2019-01-24T10:39:11.580Z,-2.60
2019-01-24T10:44:17.560Z,-2.60
2019-01-24T10:49:23.639Z,-2.60
2019-01-24T10:54:29.681Z,-2.60
2019-01-24T10:59:35.776Z,-2.60
2019-01-24T11:04:41.828Z,-2.50
2019-01-24T11:09:47.991Z,-2.30
2019-01-24T11:14:53.996Z,-2.20
2019-01-24T11:19:59.957Z,-2.00
2019-01-24T11:25:06.473Z,-1.90
2019-01-24T11:30:15.043Z,-2.10
2019-01-24T11:35:23.542Z,-2.20
2019-01-24T11:40:29.680Z,-1.90
2019-01-24T11:45:43.840Z,-1.70
2019-01-24T11:50:51.152Z,-2.00
2019-01-24T11:55:57.597Z,-1.80
2019-01-24T12:01:03.677Z,-1.80
2019-01-24T12:06:09.709Z,-1.40
2019-01-24T12:11:15.744Z,-1.20
2019-01-24T12:16:21.834Z,-0.80
2019-01-24T12:21:27.998Z,-0.90
2019-01-24T12:26:34.111Z,-1.30
2019-01-24T12:31:40.056Z,-1.50
2019-01-24T12:36:47.087Z,-1.60
2019-01-24T12:41:54.516Z,-1.40
2019-01-24T12:47:00.752Z,-1.60
2019-01-24T12:52:06.914Z,-1.60
2019-01-24T12:57:12.880Z,-1.60
2019-01-24T13:02:18.861Z,-1.50
2019-01-24T13:07:24.742Z,-1.60
2019-01-24T13:12:30.899Z,-1.30
2019-01-24T13:17:36.864Z,-1.30
2019-01-24T13:22:43.075Z,-1.30
2019-01-24T13:27:49.040Z,-1.50
2019-01-24T13:32:55.012Z,-1.70
2019-01-24T13:38:01.184Z,-1.90
2019-01-24T13:43:07.895Z,-1.80
2019-01-24T13:48:14.064Z,-2.00
2019-01-24T13:53:19.850Z,-1.90
2019-01-24T13:58:25.979Z,-1.70
2019-01-24T14:04:04.541Z,-1.60
2019-01-24T14:09:11.622Z,-1.70
2019-01-24T14:14:17.754Z,-1.80
2019-01-24T14:19:23.900Z,-1.90
2019-01-24T14:24:29.838Z,-2.00
2019-01-24T14:29:35.909Z,-2.00
2019-01-24T14:34:43.059Z,-2.20
2019-01-24T14:39:49.200Z,-2.20
2019-01-24T14:44:55.257Z,-2.10
2019-01-24T14:50:01.250Z,-2.10
2019-01-24T14:55:08.164Z,-2.10
2019-01-24T15:00:38.002Z,-2.00
2019-01-24T15:05:44.028Z,-2.00
2019-01-24T15:10:50.036Z,-2.10
2019-01-24T15:15:56.042Z,-2.10
2019-01-24T15:21:02.002Z,-2.20
2019-01-24T15:26:08.092Z,-2.20
2019-01-24T15:31:14.253Z,-2.20
2019-01-24T15:36:20.399Z,-2.30
2019-01-24T15:41:26.371Z,-2.40
2019-01-24T15:46:32.359Z,-2.40
2019-01-24T15:51:38.405Z,-2.40
2019-01-24T15:56:44.456Z,-2.50
2019-01-24T16:01:50.589Z,-2.40
2019-01-24T16:06:56.644Z,-2.40
2019-01-24T16:12:02.711Z,-2.30
2019-01-24T16:17:08.941Z,-2.30
2019-01-24T16:22:14.966Z,-2.40
2019-01-24T16:27:21.056Z,-2.60
2019-01-24T16:32:27.233Z,-2.60
2019-01-24T16:37:33.297Z,-2.50
2019-01-24T16:42:39.382Z,-2.40
2019-01-24T16:47:45.437Z,-2.40
2019-01-24T16:52:51.530Z,-2.40
2019-01-24T16:57:57.713Z,-2.50
2019-01-24T17:03:03.891Z,-2.50
2019-01-24T17:08:16.303Z,-2.60
2019-01-24T17:13:20.514Z,-2.50
2019-01-24T17:18:26.625Z,-2.50
2019-01-24T17:23:32.622Z,-2.40
2019-01-24T17:28:38.835Z,-2.60
2019-01-24T17:33:45.098Z,-2.70
2019-01-24T17:38:51.089Z,-2.80
2019-01-24T17:43:57.207Z,-2.90
2019-01-24T17:49:03.366Z,-2.80
2019-01-24T17:54:09.900Z,-2.80
2019-01-24T17:59:16.033Z,-2.80
2019-01-24T18:04:22.107Z,-2.90
2019-01-24T18:09:28.170Z,-2.90
2019-01-24T18:14:34.289Z,-2.90
2019-01-24T18:19:40.309Z,-2.90
2019-01-24T18:24:46.541Z,-3.00
2019-01-24T18:29:52.672Z,-2.90
2019-01-24T18:34:58.757Z,-3.00
2019-01-24T18:40:05.426Z,-2.90
2019-01-24T18:45:13.989Z,-2.90
2019-01-24T18:50:22.503Z,-2.90
2019-01-24T18:55:29.738Z,-2.80
2019-01-24T19:00:38.639Z,-2.80
2019-01-24T19:05:45.142Z,-2.80
2019-01-24T19:10:51.203Z,-3.00
2019-01-24T19:15:57.352Z,-3.00
2019-01-24T19:21:03.664Z,-3.00
2019-01-24T19:26:10.857Z,-2.90
2019-01-24T19:31:16.996Z,-2.90
2019-01-24T19:36:23.157Z,-2.80
2019-01-24T19:41:29.291Z,-2.70
2019-01-24T19:46:35.591Z,-2.80
2019-01-24T19:51:41.550Z,-2.90
2019-01-24T19:56:47.588Z,-2.70
2019-01-24T20:01:54.043Z,-2.70
2019-01-24T20:07:00.155Z,-2.80
2019-01-24T20:12:06.696Z,-2.80
2019-01-24T20:17:12.943Z,-2.70
2019-01-24T20:22:19.434Z,-2.60
2019-01-24T20:27:25.536Z,-2.70
2019-01-24T20:32:31.881Z,-2.70
2019-01-24T20:37:38.004Z,-2.80
2019-01-24T20:42:44.083Z,-2.80
2019-01-24T20:47:50.168Z,-2.80
2019-01-24T20:52:56.420Z,-2.80
2019-01-24T20:58:02.688Z,-2.80
2019-01-24T21:03:08.771Z,-2.80
2019-01-24T21:08:15.095Z,-2.90
2019-01-24T21:13:21.388Z,-2.90
2019-01-24T21:18:27.500Z,-3.00
2019-01-24T21:23:33.760Z,-3.00
2019-01-24T21:28:39.846Z,-2.90
2019-01-24T21:33:46.179Z,-2.90
2019-01-24T21:38:52.352Z,-2.90
2019-01-24T21:43:58.508Z,-2.90
2019-01-24T21:49:04.933Z,-2.80
2019-01-24T21:54:11.181Z,-2.80
2019-01-24T21:59:17.235Z,-2.80
2019-01-24T22:04:23.403Z,-2.80
2019-01-24T22:09:29.604Z,-2.90
2019-01-24T22:14:35.742Z,-2.90
2019-01-24T22:19:42.717Z,-3.00
2019-01-24T22:24:48.817Z,-3.10
2019-01-24T22:29:54.871Z,-3.00
2019-01-24T22:35:00.860Z,-3.00
2019-01-24T22:40:08.421Z,-3.00
2019-01-24T22:45:20.716Z,-3.10
2019-01-24T22:50:26.864Z,-3.00
2019-01-24T22:55:32.944Z,-3.00
2019-01-24T23:01:01.444Z,-3.10
2019-01-24T23:06:07.613Z,-3.20
2019-01-24T23:11:13.811Z,-3.20
2019-01-24T23:16:19.970Z,-3.20
2019-01-24T23:21:26.272Z,-3.20
2019-01-24T23:26:32.313Z,-3.20
2019-01-24T23:31:38.519Z,-3.20
2019-01-24T23:36:44.680Z,-3.30
2019-01-24T23:41:50.952Z,-3.30
2019-01-24T23:46:57.029Z,-3.20
2019-01-24T23:52:03.326Z,-3.30
2019-01-24T23:57:09.513Z,-3.30
